createdAt,value
2019-01-20T00:01:25.186Z,50.47
2019-01-20T00:07:01.989Z,54.07
2019-01-20T00:13:19.200Z,47.20
2019-01-20T00:16:27.735Z,51.80
2019-01-20T00:18:55.910Z,76.57
2019-01-20T00:21:23.978Z,57.33
2019-01-20T00:24:32.075Z,60.03
2019-01-20T00:27:40.274Z,56.00
2019-01-20T00:33:57.549Z,51.13
2019-01-20T00:45:13.806Z,51.03
2019-01-20T00:47:42.457Z,55.67
2019-01-20T00:50:50.986Z,55.70
2019-01-20T00:53:19.226Z,54.60
2019-01-20T00:58:56.232Z,55.00
2019-01-20T01:01:24.050Z,55.77
2019-01-20T01:03:52.483Z,54.17
2019-01-20T01:07:00.955Z,53.80
2019-01-20T01:09:29.487Z,52.13
2019-01-20T01:12:37.655Z,52.97
2019-01-20T01:15:46.162Z,54.67
2019-01-20T01:18:14.352Z,53.03
2019-01-20T01:20:42.802Z,54.80
2019-01-20T01:23:10.806Z,57.97
2019-01-20T01:29:14.365Z,51.33
2019-01-20T01:31:42.180Z,52.87
2019-01-20T01:34:09.647Z,66.43
2019-01-20T01:37:18.141Z,52.93
2019-01-20T01:42:41.572Z,56.70
2019-01-20T01:45:50.697Z,52.57
2019-01-20T01:51:27.807Z,50.90
2019-01-20T01:53:56.186Z,56.33
2019-01-20T01:56:24.346Z,55.23
2019-01-20T01:58:52.772Z,55.17
2019-01-20T02:01:21.048Z,54.40
2019-01-20T02:03:49.211Z,52.63
2019-01-20T02:06:16.603Z,56.90
2019-01-20T02:09:25.058Z,57.77
2019-01-20T02:11:53.219Z,57.83
2019-01-20T02:14:21.338Z,57.00
2019-01-20T02:17:29.828Z,56.60
2019-01-20T02:19:58.322Z,58.27
2019-01-20T02:22:26.023Z,60.37
2019-01-20T02:28:08.462Z,58.90
2019-01-20T02:30:36.529Z,55.77
2019-01-20T02:33:04.767Z,54.40
2019-01-20T02:35:32.823Z,66.03
2019-01-20T02:38:40.957Z,53.73
2019-01-20T02:41:54.997Z,79.32
2019-01-20T02:44:19.129Z,57.93
2019-01-20T02:49:54.417Z,61.40
2019-01-20T02:52:22.186Z,56.67
2019-01-20T02:54:50.386Z,59.83
2019-01-20T02:57:18.510Z,63.87
2019-01-20T03:02:55.598Z,64.50
2019-01-20T03:06:03.946Z,55.30
2019-01-20T03:09:12.392Z,58.50
2019-01-20T03:11:40.532Z,57.90
2019-01-20T03:14:08.622Z,67.53
2019-01-20T03:16:36.022Z,60.33
2019-01-20T03:22:23.511Z,67.23
2019-01-20T03:24:51.606Z,64.87
2019-01-20T03:27:20.207Z,55.33
2019-01-20T03:29:48.610Z,65.53
2019-01-20T03:32:16.691Z,78.47
2019-01-20T03:35:03.975Z,72.43
2019-01-20T03:37:32.117Z,77.03
2019-01-20T03:39:59.982Z,73.87
2019-01-20T03:45:42.721Z,54.77
2019-01-20T03:48:10.833Z,61.80
2019-01-20T03:53:47.724Z,63.87
2019-01-20T03:56:16.099Z,61.50
2019-01-20T03:59:24.593Z,67.27
2019-01-20T04:01:53.202Z,67.10
2019-01-20T04:13:26.307Z,68.87
2019-01-20T04:16:34.780Z,65.43
2019-01-20T04:19:02.915Z,56.17
2019-01-20T04:21:31.287Z,57.87
2019-01-20T04:23:59.756Z,64.83
2019-01-20T04:26:27.923Z,61.80
2019-01-20T04:28:56.002Z,67.93
2019-01-20T04:31:24.496Z,62.07
2019-01-20T04:33:52.559Z,66.73
2019-01-20T04:36:20.640Z,63.57
2019-01-20T04:38:48.461Z,57.27
2019-01-20T04:41:17.005Z,64.37
2019-01-20T04:47:34.217Z,52.47
2019-01-20T04:50:02.410Z,56.97
2019-01-20T04:55:39.569Z,55.47
2019-01-20T05:04:32.621Z,54.27
2019-01-20T05:10:36.144Z,55.50
2019-01-20T05:13:04.829Z,56.10
2019-01-20T05:15:33.007Z,59.17
2019-01-20T05:18:01.427Z,61.73
2019-01-20T05:20:30.067Z,63.60
2019-01-20T05:22:58.470Z,63.83
2019-01-20T05:25:26.693Z,56.83
2019-01-20T05:27:54.727Z,63.87
2019-01-20T05:31:03.924Z,65.43
2019-01-20T05:33:32.405Z,60.70
2019-01-20T05:36:00.593Z,54.13
2019-01-20T05:42:04.814Z,59.03
2019-01-20T05:47:41.487Z,62.27
2019-01-20T05:53:19.083Z,58.07
2019-01-20T05:56:27.161Z,60.43
2019-01-20T05:58:55.550Z,60.07
2019-01-20T06:02:04.045Z,53.03
2019-01-20T06:05:12.119Z,58.20
2019-01-20T06:10:36.248Z,51.70
2019-01-20T06:13:04.422Z,52.60
2019-01-20T06:16:12.228Z,53.20
2019-01-20T06:19:20.412Z,57.57
2019-01-20T06:21:48.984Z,55.07
2019-01-20T06:24:16.714Z,53.83
2019-01-20T06:26:45.238Z,54.00
2019-01-20T06:29:13.718Z,56.13
2019-01-20T06:31:41.458Z,58.47
2019-01-20T06:34:09.552Z,54.80
2019-01-20T06:36:37.526Z,53.23
2019-01-20T06:39:47.939Z,50.70
2019-01-20T06:43:01.774Z,54.37
2019-01-20T06:45:26.826Z,53.70
2019-01-20T06:47:54.996Z,59.37
2019-01-20T06:50:23.464Z,56.37
2019-01-20T06:53:31.555Z,53.50
2019-01-20T06:55:59.756Z,55.07
2019-01-20T06:59:08.230Z,51.20
2019-01-20T07:02:16.713Z,54.20
2019-01-20T07:05:24.976Z,55.17
2019-01-20T07:07:53.575Z,55.13
2019-01-20T07:10:21.822Z,47.87
2019-01-20T07:16:39.021Z,51.67
2019-01-20T07:19:26.606Z,55.73
2019-01-20T07:21:54.914Z,52.53
2019-01-20T07:24:23.109Z,60.07
2019-01-20T07:30:26.707Z,58.00
2019-01-20T07:33:34.927Z,59.37
2019-01-20T07:38:57.849Z,55.10
2019-01-20T07:41:26.441Z,58.33
2019-01-20T07:43:54.607Z,54.60
2019-01-20T07:49:17.282Z,52.00
2019-01-20T07:52:25.383Z,55.93
2019-01-20T07:54:53.543Z,53.33
2019-01-20T08:03:14.187Z,57.57
2019-01-20T08:09:17.270Z,55.87
2019-01-20T08:14:53.823Z,57.03
2019-01-20T08:17:21.585Z,50.13
2019-01-20T08:20:29.843Z,55.73
2019-01-20T08:23:37.970Z,55.77
2019-01-20T08:26:06.377Z,150.60
2019-01-20T08:28:34.867Z,77.33
2019-01-20T08:34:51.947Z,48.77
2019-01-20T08:41:10.048Z,46.87
2019-01-20T08:43:38.873Z,45.60
2019-01-20T08:46:59.092Z,54.27
2019-01-20T08:49:26.904Z,51.17
2019-01-20T08:52:35.393Z,51.30
2019-01-20T08:55:43.933Z,58.37
2019-01-20T08:58:12.183Z,51.70
2019-01-20T09:00:40.672Z,54.67
2019-01-20T09:03:09.789Z,55.60
2019-01-20T09:05:37.164Z,55.30
2019-01-20T09:08:45.683Z,63.13
2019-01-20T09:11:14.186Z,56.17
2019-01-20T09:13:42.480Z,58.90
2019-01-20T09:16:11.047Z,55.13
2019-01-20T09:19:19.344Z,65.23
2019-01-20T09:22:27.852Z,58.27
2019-01-20T09:24:56.435Z,51.97
2019-01-20T09:28:04.984Z,49.40
2019-01-20T09:30:33.568Z,58.37
2019-01-20T09:33:42.096Z,73.83
2019-01-20T09:36:10.332Z,74.73
2019-01-20T09:41:47.189Z,48.80
2019-01-20T09:44:15.718Z,46.73
2019-01-20T09:46:44.209Z,48.10
2019-01-20T09:49:11.618Z,46.27
2019-01-20T09:52:19.806Z,51.43
2019-01-20T09:55:28.376Z,48.30
2019-01-20T09:57:56.650Z,45.67
2019-01-20T10:01:05.474Z,46.23
2019-01-20T10:06:28.628Z,42.57
2019-01-20T10:12:45.366Z,52.67
2019-01-20T10:15:53.787Z,84.53
2019-01-20T10:18:21.822Z,65.08
2019-01-20T10:20:50.021Z,56.70
2019-01-20T10:23:17.925Z,47.43
2019-01-20T10:25:46.414Z,47.17
2019-01-20T10:28:17.043Z,38.67
2019-01-20T10:30:44.881Z,36.70
2019-01-20T10:33:12.771Z,36.07
2019-01-20T10:35:42.859Z,37.67
2019-01-20T10:43:24.489Z,42.50
2019-01-20T10:45:53.173Z,45.23
2019-01-20T10:48:21.493Z,37.47
2019-01-20T10:50:49.658Z,37.40
2019-01-20T10:53:18.199Z,36.43
2019-01-20T10:55:46.737Z,33.30
2019-01-20T10:58:14.969Z,35.50
2019-01-20T11:00:43.268Z,36.00
2019-01-20T11:03:11.329Z,34.57
2019-01-20T11:05:39.856Z,39.13
2019-01-20T11:08:07.313Z,49.93
2019-01-20T11:10:35.961Z,48.17
2019-01-20T11:13:04.158Z,50.03
2019-01-20T11:15:32.635Z,48.47
2019-01-20T11:18:00.809Z,44.60
2019-01-20T11:20:29.357Z,46.93
2019-01-20T11:22:57.198Z,63.03
2019-01-20T11:25:44.360Z,47.50
2019-01-20T11:28:12.504Z,38.63
2019-01-20T11:30:40.239Z,32.20
2019-01-20T11:33:08.619Z,38.03
2019-01-20T11:35:36.929Z,34.83
2019-01-20T11:38:05.275Z,31.37
2019-01-20T11:41:13.829Z,31.00
2019-01-20T11:43:41.958Z,33.03
2019-01-20T11:46:10.050Z,35.47
2019-01-20T11:48:38.515Z,45.63
2019-01-20T11:51:06.964Z,38.37
2019-01-20T11:53:34.670Z,52.67
2019-01-20T11:56:03.270Z,55.80
2019-01-20T11:58:31.387Z,44.33
2019-01-20T12:00:59.528Z,44.37
2019-01-20T12:03:27.311Z,42.93
2019-01-20T12:05:55.832Z,55.20
2019-01-20T12:08:30.406Z,54.03
2019-01-20T12:10:54.308Z,59.07
2019-01-20T12:13:31.269Z,37.43
2019-01-20T12:15:59.349Z,33.17
2019-01-20T12:18:27.134Z,29.27
2019-01-20T12:20:55.587Z,28.33
2019-01-20T12:23:23.773Z,27.13
2019-01-20T12:25:51.933Z,29.17
2019-01-20T12:28:20.138Z,26.00
2019-01-20T12:30:48.660Z,27.67
2019-01-20T12:33:17.227Z,26.77
2019-01-20T12:38:54.180Z,19.37
2019-01-20T12:41:22.455Z,22.57
2019-01-20T12:43:50.412Z,19.73
2019-01-20T12:46:58.853Z,18.50
2019-01-20T12:50:06.688Z,20.47
2019-01-20T12:52:35.098Z,19.60
2019-01-20T12:57:58.717Z,21.23
2019-01-20T13:00:27.520Z,24.07
2019-01-20T13:03:35.999Z,35.87
2019-01-20T13:06:04.411Z,35.20
2019-01-20T13:09:12.632Z,31.43
2019-01-20T13:14:48.770Z,27.97
2019-01-20T13:17:17.281Z,33.00
2019-01-20T13:20:25.179Z,22.20
2019-01-20T13:23:33.732Z,41.10
2019-01-20T13:26:01.973Z,33.07
2019-01-20T13:32:18.935Z,24.17
2019-01-20T13:34:46.740Z,25.70
2019-01-20T13:37:15.366Z,24.00
2019-01-20T13:42:38.638Z,27.23
2019-01-20T13:45:47.704Z,30.17
2019-01-20T13:48:56.259Z,30.83
2019-01-20T13:54:20.433Z,17.43
2019-01-20T13:56:48.498Z,19.70
2019-01-20T13:59:56.710Z,25.27
2019-01-20T14:03:04.904Z,23.63
2019-01-20T14:05:33.568Z,24.90
2019-01-20T14:08:01.787Z,25.00
2019-01-20T14:11:10.295Z,21.80
2019-01-20T14:14:18.757Z,19.43
2019-01-20T14:20:22.831Z,30.57
2019-01-20T14:23:31.396Z,23.17
2019-01-20T14:25:59.839Z,24.17
2019-01-20T14:28:27.639Z,30.63
2019-01-20T14:30:55.936Z,34.17
2019-01-20T14:33:24.394Z,44.43
2019-01-20T14:35:52.684Z,47.53
2019-01-20T14:38:20.968Z,34.13
2019-01-20T14:40:49.102Z,40.37
2019-01-20T14:43:17.713Z,41.47
2019-01-20T14:45:46.357Z,38.07
2019-01-20T14:48:14.990Z,33.40
2019-01-20T14:50:43.293Z,28.40
2019-01-20T14:53:11.438Z,25.63
2019-01-20T14:55:39.725Z,27.13
2019-01-20T14:58:07.948Z,36.70
2019-01-20T15:00:36.847Z,29.67
2019-01-20T15:03:05.716Z,33.67
2019-01-20T15:05:33.926Z,36.07
2019-01-20T15:08:42.075Z,37.70
2019-01-20T15:11:09.865Z,47.73
2019-01-20T15:16:33.379Z,54.13
2019-01-20T15:19:41.952Z,65.77
2019-01-20T15:22:10.443Z,53.60
2019-01-20T15:24:38.859Z,40.80
2019-01-20T15:27:07.344Z,39.73
2019-01-20T15:29:35.574Z,43.20
2019-01-20T15:32:03.268Z,39.57
2019-01-20T15:34:31.146Z,47.33
2019-01-20T15:36:59.216Z,47.13
2019-01-20T15:39:27.410Z,46.37
2019-01-20T15:41:55.558Z,54.73
2019-01-20T15:44:23.775Z,57.77
2019-01-20T15:46:51.700Z,60.67
2019-01-20T15:49:19.631Z,53.97
2019-01-20T15:51:47.901Z,49.57
2019-01-20T15:54:16.048Z,55.97
2019-01-20T15:56:44.671Z,58.93
2019-01-20T15:59:12.895Z,60.80
2019-01-20T16:01:41.486Z,64.47
2019-01-20T16:04:09.616Z,70.20
2019-01-20T16:06:37.884Z,74.13
2019-01-20T16:09:47.969Z,69.90
2019-01-20T16:12:16.004Z,70.63
2019-01-20T16:14:44.605Z,74.40
2019-01-20T16:17:52.827Z,77.10
2019-01-20T16:20:21.525Z,74.33
2019-01-20T16:25:58.777Z,77.87
2019-01-20T16:28:26.894Z,76.57
2019-01-20T16:33:28.732Z,85.47
2019-01-20T16:36:37.236Z,81.23
2019-01-20T16:39:47.611Z,76.33
2019-01-20T16:42:15.871Z,81.97
2019-01-20T16:44:44.336Z,84.80
2019-01-20T16:47:12.911Z,85.00
2019-01-20T16:49:40.369Z,88.57
2019-01-20T16:52:08.235Z,85.57
2019-01-20T16:55:16.769Z,92.13
2019-01-20T16:57:44.515Z,95.53
2019-01-20T17:02:52.958Z,96.03
2019-01-20T17:05:26.492Z,95.60
2019-01-20T17:07:51.721Z,88.77
2019-01-20T17:10:21.704Z,81.90
2019-01-20T17:12:49.984Z,82.80
2019-01-20T17:15:20.170Z,81.50
2019-01-20T17:17:48.531Z,81.10
2019-01-20T17:20:57.590Z,78.37
2019-01-20T17:23:26.332Z,77.77
2019-01-20T17:25:54.574Z,72.43
2019-01-20T17:28:22.441Z,69.50
2019-01-20T17:30:50.920Z,69.27
2019-01-20T17:33:19.100Z,68.50
2019-01-20T17:35:47.303Z,75.87
2019-01-20T17:38:15.449Z,67.23
2019-01-20T17:40:44.154Z,73.70
2019-01-20T17:43:12.786Z,77.93
2019-01-20T17:45:47.557Z,73.03
2019-01-20T17:48:12.845Z,72.00
2019-01-20T17:51:22.009Z,74.77
2019-01-20T17:53:52.109Z,76.43
2019-01-20T17:56:20.826Z,81.23
2019-01-20T17:58:49.033Z,71.73
2019-01-20T18:01:17.436Z,79.17
2019-01-20T18:03:45.836Z,74.90
2019-01-20T18:09:49.078Z,72.97
2019-01-20T18:12:17.436Z,75.30
2019-01-20T18:14:45.711Z,83.37
2019-01-20T18:17:13.650Z,74.73
2019-01-20T18:19:41.410Z,72.57
2019-01-20T18:22:09.637Z,67.40
2019-01-20T18:24:37.666Z,57.63
2019-01-20T18:27:06.350Z,66.40
2019-01-20T18:29:34.177Z,64.63
2019-01-20T18:32:02.492Z,65.77
2019-01-20T18:34:30.972Z,64.13
2019-01-20T18:36:59.200Z,59.80
2019-01-20T18:39:27.320Z,64.87
2019-01-20T18:41:55.875Z,64.17
2019-01-20T18:44:24.341Z,62.30
2019-01-20T18:46:52.363Z,55.87
2019-01-20T18:49:20.430Z,81.03
2019-01-20T18:51:49.220Z,134.47
2019-01-20T18:54:17.815Z,88.87
2019-01-20T18:56:46.069Z,48.30
2019-01-20T18:59:14.235Z,45.97
2019-01-20T19:01:55.526Z,41.23
2019-01-20T19:04:23.945Z,93.93
2019-01-20T19:06:52.533Z,59.90
2019-01-20T19:09:21.045Z,55.07
2019-01-20T19:14:24.142Z,62.97
2019-01-20T19:17:32.731Z,44.23
2019-01-20T19:19:59.786Z,33.03
2019-01-20T19:25:13.273Z,38.63
2019-01-20T19:27:31.921Z,38.60
2019-01-20T19:30:00.509Z,37.33
2019-01-20T19:32:29.084Z,35.13
2019-01-20T19:35:16.314Z,34.20
2019-01-20T19:40:19.263Z,39.07
2019-01-20T19:42:48.004Z,40.70
2019-01-20T19:45:56.714Z,39.93
2019-01-20T19:49:06.039Z,36.97
2019-01-20T19:51:33.862Z,39.33
2019-01-20T19:54:42.484Z,39.67
2019-01-20T19:57:09.864Z,42.23
2019-01-20T20:02:32.689Z,51.13
2019-01-20T20:05:00.992Z,47.13
2019-01-20T20:10:38.484Z,66.37
2019-01-20T20:13:06.698Z,78.27
2019-01-20T20:15:35.274Z,70.90
2019-01-20T20:18:03.102Z,94.07
2019-01-20T20:20:31.606Z,81.97
2019-01-20T20:23:00.197Z,75.47
2019-01-20T20:28:23.378Z,73.90
2019-01-20T20:30:51.882Z,66.57
2019-01-20T20:33:20.322Z,53.63
2019-01-20T20:35:48.708Z,54.30
2019-01-20T20:38:17.009Z,52.07
2019-01-20T20:40:46.228Z,61.23
2019-01-20T20:43:14.492Z,62.27
2019-01-20T20:45:43.058Z,59.90
2019-01-20T20:48:11.095Z,65.87
2019-01-20T20:50:39.880Z,76.90
2019-01-20T20:53:49.658Z,69.63
2019-01-20T20:56:18.096Z,78.97
2019-01-20T20:58:46.784Z,77.27
2019-01-20T21:01:15.164Z,73.60
2019-01-20T21:03:43.102Z,79.33
2019-01-20T21:06:10.696Z,75.47
2019-01-20T21:08:39.431Z,78.23
2019-01-20T21:11:07.605Z,89.87
2019-01-20T21:13:35.690Z,88.03
2019-01-20T21:16:04.241Z,91.30
2019-01-20T21:18:32.518Z,88.93
2019-01-20T21:21:00.807Z,92.10
2019-01-20T21:23:29.682Z,90.20
2019-01-20T21:29:07.571Z,89.83
2019-01-20T21:34:30.568Z,89.63
2019-01-20T21:36:58.945Z,92.53
2019-01-20T21:39:27.214Z,101.67
2019-01-20T21:44:35.556Z,92.50
2019-01-20T21:47:04.173Z,96.63
2019-01-20T21:49:32.642Z,92.97
2019-01-20T21:52:01.126Z,101.93
2019-01-20T21:54:29.782Z,101.13
2019-01-20T21:56:58.203Z,97.60
2019-01-20T21:59:27.040Z,94.07
2019-01-20T22:02:14.663Z,95.47
2019-01-20T22:04:42.752Z,94.60
2019-01-20T22:07:10.982Z,91.20
2019-01-20T22:09:40.138Z,92.37
2019-01-20T22:12:08.675Z,84.40
2019-01-20T22:14:37.369Z,86.60
2019-01-20T22:17:45.590Z,93.00
2019-01-20T22:20:33.995Z,84.30
2019-01-20T22:23:21.490Z,87.17
2019-01-20T22:25:49.857Z,78.70
2019-01-20T22:28:18.091Z,90.07
2019-01-20T22:31:06.049Z,85.87
2019-01-20T22:34:14.516Z,81.63
2019-01-20T22:36:43.091Z,90.37
2019-01-20T22:39:30.081Z,87.50
2019-01-20T22:41:59.288Z,85.40
2019-01-20T22:47:24.733Z,87.20
2019-01-20T22:50:33.201Z,85.93
2019-01-20T22:53:02.005Z,86.67
2019-01-20T22:56:10.445Z,90.10
2019-01-20T22:59:18.912Z,90.30
2019-01-20T23:01:46.867Z,99.70
2019-01-20T23:04:14.242Z,89.77
2019-01-20T23:06:42.165Z,86.33
2019-01-20T23:09:10.151Z,83.77
2019-01-20T23:11:38.739Z,75.50
2019-01-20T23:14:06.971Z,65.43
2019-01-20T23:16:35.411Z,68.30
2019-01-20T23:19:03.955Z,66.00
2019-01-20T23:21:32.149Z,69.77
2019-01-20T23:24:00.202Z,63.73
2019-01-20T23:26:28.722Z,65.87
2019-01-20T23:28:56.836Z,68.83
2019-01-20T23:31:24.963Z,62.40
2019-01-20T23:37:01.350Z,61.30
2019-01-20T23:39:29.547Z,62.47
2019-01-20T23:42:37.647Z,63.07
2019-01-20T23:45:46.082Z,57.50
2019-01-20T23:51:08.640Z,68.73
2019-01-20T23:53:36.850Z,59.53
2019-01-20T23:56:05.220Z,66.30
2019-01-20T23:58:33.645Z,66.20
